sensor_id;sensor_type;location;lat;lon;timestamp;temperature;humidity
33699;DHT22;20032;52.436;13.312;2022-10-31T00:01:16;12.30;99.90
33699;DHT22;20032;52.436;13.312;2022-10-31T00:03:41;12.30;99.90
33699;DHT22;20032;52.436;13.312;2022-10-31T00:06:07;12.30;99.90
33699;DHT22;20032;52.436;13.312;2022-10-31T00:08:32;12.30;99.90
33699;DHT22;20032;52.436;13.312;2022-10-31T00:10:58;12.30;99.90
33699;DHT22;20032;52.436;13.312;2022-10-31T00:13:23;12.20;99.90
33699;DHT22;20032;52.436;13.312;2022-10-31T00:15:49;12.20;99.90
33699;DHT22;20032;52.436;13.312;2022-10-31T00:18:15;12.20;99.90
33699;DHT22;20032;52.436;13.312;2022-10-31T00:20:40;12.20;99.90
33699;DHT22;20032;52.436;13.312;2022-10-31T00:23:06;12.10;99.90
33699;DHT22;20032;52.436;13.312;2022-10-31T00:25:36;12.10;99.90
33699;DHT22;20032;52.436;13.312;2022-10-31T00:28:03;12.00;99.90
33699;DHT22;20032;52.436;13.312;2022-10-31T00:30:29;12.10;99.90
33699;DHT22;20032;52.436;13.312;2022-10-31T00:32:54;12.10;99.90
33699;DHT22;20032;52.436;13.312;2022-10-31T00:35:20;12.10;99.90
33699;DHT22;20032;52.436;13.312;2022-10-31T00:37:45;12.10;99.90
33699;DHT22;20032;52.436;13.312;2022-10-31T00:40:11;12.10;99.90
33699;DHT22;20032;52.436;13.312;2022-10-31T00:42:37;12.00;99.90
33699;DHT22;20032;52.436;13.312;2022-10-31T00:45:04;12.00;99.90
33699;DHT22;20032;52.436;13.312;2022-10-31T00:47:29;12.10;99.90
33699;DHT22;20032;52.436;13.312;2022-10-31T00:49:55;12.10;99.90
33699;DHT22;20032;52.436;13.312;2022-10-31T00:52:20;12.20;99.90
33699;DHT22;20032;52.436;13.312;2022-10-31T00:54:45;12.30;99.90
33699;DHT22;20032;52.436;13.312;2022-10-31T00:57:11;12.30;99.90
33699;DHT22;20032;52.436;13.312;2022-10-31T00:59:36;12.30;99.90
33699;DHT22;20032;52.436;13.312;2022-10-31T01:02:02;12.40;99.90
33699;DHT22;20032;52.436;13.312;2022-10-31T01:04:27;12.40;99.90
33699;DHT22;20032;52.436;13.312;2022-10-31T01:06:53;12.40;99.90
33699;DHT22;20032;52.436;13.312;2022-10-31T01:09:18;12.40;99.90
33699;DHT22;20032;52.436;13.312;2022-10-31T01:11:44;12.50;99.90
33699;DHT22;20032;52.436;13.312;2022-10-31T01:14:10;12.50;99.90
33699;DHT22;20032;52.436;13.312;2022-10-31T01:16:36;12.40;99.90
33699;DHT22;20032;52.436;13.312;2022-10-31T01:19:01;12.30;99.90
33699;DHT22;20032;52.436;13.312;2022-10-31T01:21:28;12.20;99.90
33699;DHT22;20032;52.436;13.312;2022-10-31T01:23:55;12.10;99.90
33699;DHT22;20032;52.436;13.312;2022-10-31T01:26:23;12.20;99.90
33699;DHT22;20032;52.436;13.312;2022-10-31T01:28:52;12.10;99.90
33699;DHT22;20032;52.436;13.312;2022-10-31T01:31:20;12.10;99.90
33699;DHT22;20032;52.436;13.312;2022-10-31T01:33:46;12.10;99.90
33699;DHT22;20032;52.436;13.312;2022-10-31T01:36:19;12.10;99.90
33699;DHT22;20032;52.436;13.312;2022-10-31T01:38:46;12.10;99.90
33699;DHT22;20032;52.436;13.312;2022-10-31T01:41:14;12.10;99.90
33699;DHT22;20032;52.436;13.312;2022-10-31T01:43:46;12.10;99.90
33699;DHT22;20032;52.436;13.312;2022-10-31T01:46:12;12.10;99.90
33699;DHT22;20032;52.436;13.312;2022-10-31T01:48:39;12.10;99.90
33699;DHT22;20032;52.436;13.312;2022-10-31T01:51:05;12.00;99.90
33699;DHT22;20032;52.436;13.312;2022-10-31T01:53:32;12.10;99.90
33699;DHT22;20032;52.436;13.312;2022-10-31T01:55:59;12.20;99.90
33699;DHT22;20032;52.436;13.312;2022-10-31T01:58:27;12.20;99.90
33699;DHT22;20032;52.436;13.312;2022-10-31T02:00:58;12.20;99.90
33699;DHT22;20032;52.436;13.312;2022-10-31T02:03:25;12.20;99.90
33699;DHT22;20032;52.436;13.312;2022-10-31T02:05:53;12.30;99.90
33699;DHT22;20032;52.436;13.312;2022-10-31T02:08:25;12.30;99.90
33699;DHT22;20032;52.436;13.312;2022-10-31T02:10:51;12.30;99.90
33699;DHT22;20032;52.436;13.312;2022-10-31T02:13:17;12.40;99.90
33699;DHT22;20032;52.436;13.312;2022-10-31T02:15:47;12.30;99.90
33699;DHT22;20032;52.436;13.312;2022-10-31T02:18:14;12.20;99.90
33699;DHT22;20032;52.436;13.312;2022-10-31T02:23:33;11.90;99.90
33699;DHT22;20032;52.436;13.312;2022-10-31T02:26:24;11.80;99.90
33699;DHT22;20032;52.436;13.312;2022-10-31T02:29:13;11.70;99.90
33699;DHT22;20032;52.436;13.312;2022-10-31T02:31:56;11.80;99.90
33699;DHT22;20032;52.436;13.312;2022-10-31T02:37:10;11.70;99.90
33699;DHT22;20032;52.436;13.312;2022-10-31T02:39:48;11.70;99.90
33699;DHT22;20032;52.436;13.312;2022-10-31T02:42:29;11.80;99.90
33699;DHT22;20032;52.436;13.312;2022-10-31T02:45:05;11.80;99.90
33699;DHT22;20032;52.436;13.312;2022-10-31T02:47:36;11.80;99.90
33699;DHT22;20032;52.436;13.312;2022-10-31T02:50:21;11.90;99.90
33699;DHT22;20032;52.436;13.312;2022-10-31T02:52:52;11.90;99.90
33699;DHT22;20032;52.436;13.312;2022-10-31T02:57:58;11.90;99.90
33699;DHT22;20032;52.436;13.312;2022-10-31T03:00:25;11.80;99.90
33699;DHT22;20032;52.436;13.312;2022-10-31T03:03:19;11.70;99.90
33699;DHT22;20032;52.436;13.312;2022-10-31T03:05:52;11.80;99.90
33699;DHT22;20032;52.436;13.312;2022-10-31T03:08:33;11.70;99.90
33699;DHT22;20032;52.436;13.312;2022-10-31T03:11:02;11.60;99.90
33699;DHT22;20032;52.436;13.312;2022-10-31T03:13:50;11.60;99.90
33699;DHT22;20032;52.436;13.312;2022-10-31T03:16:29;11.60;99.90
33699;DHT22;20032;52.436;13.312;2022-10-31T03:19:06;11.60;99.90
33699;DHT22;20032;52.436;13.312;2022-10-31T03:21:40;11.60;99.90
33699;DHT22;20032;52.436;13.312;2022-10-31T03:24:08;11.50;99.90
33699;DHT22;20032;52.436;13.312;2022-10-31T03:26:38;11.40;99.90
33699;DHT22;20032;52.436;13.312;2022-10-31T03:29:06;11.40;99.90
33699;DHT22;20032;52.436;13.312;2022-10-31T03:31:36;11.40;99.90
33699;DHT22;20032;52.436;13.312;2022-10-31T03:34:04;11.50;99.90
33699;DHT22;20032;52.436;13.312;2022-10-31T03:36:33;11.50;99.90
33699;DHT22;20032;52.436;13.312;2022-10-31T03:39:02;11.50;99.90
33699;DHT22;20032;52.436;13.312;2022-10-31T03:41:32;11.60;99.90
33699;DHT22;20032;52.436;13.312;2022-10-31T03:44:05;11.50;99.90
33699;DHT22;20032;52.436;13.312;2022-10-31T03:46:32;11.50;99.90
33699;DHT22;20032;52.436;13.312;2022-10-31T03:48:58;11.40;99.90
33699;DHT22;20032;52.436;13.312;2022-10-31T03:51:39;11.40;99.90
33699;DHT22;20032;52.436;13.312;2022-10-31T03:54:20;11.40;99.90
33699;DHT22;20032;52.436;13.312;2022-10-31T03:56:55;11.40;99.90
33699;DHT22;20032;52.436;13.312;2022-10-31T03:59:27;11.30;99.90
33699;DHT22;20032;52.436;13.312;2022-10-31T04:01:59;11.30;99.90
33699;DHT22;20032;52.436;13.312;2022-10-31T04:04:27;11.40;99.90
33699;DHT22;20032;52.436;13.312;2022-10-31T04:06:55;11.40;99.90
33699;DHT22;20032;52.436;13.312;2022-10-31T04:09:22;11.40;99.90
33699;DHT22;20032;52.436;13.312;2022-10-31T04:11:50;11.30;99.90
33699;DHT22;20032;52.436;13.312;2022-10-31T04:14:17;11.30;99.90
33699;DHT22;20032;52.436;13.312;2022-10-31T04:16:43;11.20;99.90
33699;DHT22;20032;52.436;13.312;2022-10-31T04:19:10;11.20;99.90
33699;DHT22;20032;52.436;13.312;2022-10-31T04:21:36;11.10;99.90
33699;DHT22;20032;52.436;13.312;2022-10-31T04:24:01;11.20;99.90
33699;DHT22;20032;52.436;13.312;2022-10-31T04:26:27;11.20;99.90
33699;DHT22;20032;52.436;13.312;2022-10-31T04:28:52;11.10;99.90
33699;DHT22;20032;52.436;13.312;2022-10-31T04:31:18;11.20;99.90
33699;DHT22;20032;52.436;13.312;2022-10-31T04:33:44;11.20;99.90
33699;DHT22;20032;52.436;13.312;2022-10-31T04:36:09;11.20;99.90
33699;DHT22;20032;52.436;13.312;2022-10-31T04:38:35;11.20;99.90
33699;DHT22;20032;52.436;13.312;2022-10-31T04:41:00;11.20;99.90
33699;DHT22;20032;52.436;13.312;2022-10-31T04:43:26;11.20;99.90
33699;DHT22;20032;52.436;13.312;2022-10-31T04:45:51;11.20;99.90
33699;DHT22;20032;52.436;13.312;2022-10-31T04:48:16;11.10;99.90
33699;DHT22;20032;52.436;13.312;2022-10-31T04:50:42;11.00;99.90
33699;DHT22;20032;52.436;13.312;2022-10-31T04:53:08;10.90;99.90
33699;DHT22;20032;52.436;13.312;2022-10-31T04:55:35;10.90;99.90
33699;DHT22;20032;52.436;13.312;2022-10-31T04:58:00;10.90;99.90
33699;DHT22;20032;52.436;13.312;2022-10-31T05:00:26;10.80;99.90
33699;DHT22;20032;52.436;13.312;2022-10-31T05:02:54;10.80;99.90
33699;DHT22;20032;52.436;13.312;2022-10-31T05:05:23;10.70;99.90
33699;DHT22;20032;52.436;13.312;2022-10-31T05:07:50;10.70;99.90
33699;DHT22;20032;52.436;13.312;2022-10-31T05:10:18;10.70;99.90
33699;DHT22;20032;52.436;13.312;2022-10-31T05:12:48;10.70;99.90
33699;DHT22;20032;52.436;13.312;2022-10-31T05:15:14;10.80;99.90
33699;DHT22;20032;52.436;13.312;2022-10-31T05:17:40;10.80;99.90
33699;DHT22;20032;52.436;13.312;2022-10-31T05:20:06;10.80;99.90
33699;DHT22;20032;52.436;13.312;2022-10-31T05:22:31;10.90;99.90
33699;DHT22;20032;52.436;13.312;2022-10-31T05:24:57;10.90;99.90
33699;DHT22;20032;52.436;13.312;2022-10-31T05:27:22;10.90;99.90
33699;DHT22;20032;52.436;13.312;2022-10-31T05:29:48;10.90;99.90
33699;DHT22;20032;52.436;13.312;2022-10-31T05:32:13;10.90;99.90
33699;DHT22;20032;52.436;13.312;2022-10-31T05:34:39;10.80;99.90
33699;DHT22;20032;52.436;13.312;2022-10-31T05:37:04;10.70;99.90
33699;DHT22;20032;52.436;13.312;2022-10-31T05:39:30;10.70;99.90
33699;DHT22;20032;52.436;13.312;2022-10-31T05:41:55;10.70;99.90
33699;DHT22;20032;52.436;13.312;2022-10-31T05:44:21;10.60;99.90
33699;DHT22;20032;52.436;13.312;2022-10-31T05:46:47;10.60;99.90
33699;DHT22;20032;52.436;13.312;2022-10-31T05:49:12;10.60;99.90
33699;DHT22;20032;52.436;13.312;2022-10-31T05:51:39;10.70;99.90
33699;DHT22;20032;52.436;13.312;2022-10-31T05:54:04;10.70;99.90
33699;DHT22;20032;52.436;13.312;2022-10-31T05:56:30;10.60;99.90
33699;DHT22;20032;52.436;13.312;2022-10-31T05:58:55;10.60;99.90
33699;DHT22;20032;52.436;13.312;2022-10-31T06:01:21;10.70;99.90
33699;DHT22;20032;52.436;13.312;2022-10-31T06:03:46;10.70;99.90
33699;DHT22;20032;52.436;13.312;2022-10-31T06:06:12;10.70;99.90
33699;DHT22;20032;52.436;13.312;2022-10-31T06:08:37;10.70;99.90
33699;DHT22;20032;52.436;13.312;2022-10-31T06:11:03;10.80;99.90
33699;DHT22;20032;52.436;13.312;2022-10-31T06:13:29;10.80;99.90
33699;DHT22;20032;52.436;13.312;2022-10-31T06:15:55;10.80;99.90
33699;DHT22;20032;52.436;13.312;2022-10-31T06:18:20;10.80;99.90
33699;DHT22;20032;52.436;13.312;2022-10-31T06:20:46;10.80;99.90
33699;DHT22;20032;52.436;13.312;2022-10-31T06:23:11;10.80;99.90
33699;DHT22;20032;52.436;13.312;2022-10-31T06:25:37;10.90;99.90
33699;DHT22;20032;52.436;13.312;2022-10-31T06:28:02;10.80;99.90
33699;DHT22;20032;52.436;13.312;2022-10-31T06:30:28;10.80;99.90
33699;DHT22;20032;52.436;13.312;2022-10-31T06:32:53;10.90;99.90
33699;DHT22;20032;52.436;13.312;2022-10-31T06:35:19;10.90;99.90
33699;DHT22;20032;52.436;13.312;2022-10-31T06:37:53;11.00;99.90
33699;DHT22;20032;52.436;13.312;2022-10-31T06:40:18;11.00;99.90
33699;DHT22;20032;52.436;13.312;2022-10-31T06:42:44;10.90;99.90
33699;DHT22;20032;52.436;13.312;2022-10-31T06:45:09;10.90;99.90
33699;DHT22;20032;52.436;13.312;2022-10-31T06:47:35;11.00;99.90
33699;DHT22;20032;52.436;13.312;2022-10-31T06:50:00;11.10;99.90
33699;DHT22;20032;52.436;13.312;2022-10-31T06:52:26;11.10;99.90
33699;DHT22;20032;52.436;13.312;2022-10-31T06:54:51;11.20;99.90
33699;DHT22;20032;52.436;13.312;2022-10-31T06:57:17;11.20;99.90
33699;DHT22;20032;52.436;13.312;2022-10-31T06:59:42;11.30;99.90
33699;DHT22;20032;52.436;13.312;2022-10-31T07:02:10;11.40;99.90
33699;DHT22;20032;52.436;13.312;2022-10-31T07:04:35;11.40;99.90
33699;DHT22;20032;52.436;13.312;2022-10-31T07:07:01;11.40;99.90
33699;DHT22;20032;52.436;13.312;2022-10-31T07:09:26;11.50;99.90
33699;DHT22;20032;52.436;13.312;2022-10-31T07:11:52;11.60;99.90
33699;DHT22;20032;52.436;13.312;2022-10-31T07:14:18;11.80;99.90
33699;DHT22;20032;52.436;13.312;2022-10-31T07:16:47;11.90;99.90
33699;DHT22;20032;52.436;13.312;2022-10-31T07:19:13;12.00;99.90
33699;DHT22;20032;52.436;13.312;2022-10-31T07:21:38;12.10;99.90
33699;DHT22;20032;52.436;13.312;2022-10-31T07:24:04;12.40;99.90
33699;DHT22;20032;52.436;13.312;2022-10-31T07:26:29;12.60;99.90
33699;DHT22;20032;52.436;13.312;2022-10-31T07:28:56;12.70;99.90
33699;DHT22;20032;52.436;13.312;2022-10-31T07:31:22;12.90;99.90
33699;DHT22;20032;52.436;13.312;2022-10-31T07:33:47;13.00;99.90
33699;DHT22;20032;52.436;13.312;2022-10-31T07:36:12;13.10;99.90
33699;DHT22;20032;52.436;13.312;2022-10-31T07:38:38;13.20;99.90
33699;DHT22;20032;52.436;13.312;2022-10-31T07:41:03;13.30;99.90
33699;DHT22;20032;52.436;13.312;2022-10-31T07:43:29;13.40;99.90
33699;DHT22;20032;52.436;13.312;2022-10-31T07:45:54;13.50;99.90
33699;DHT22;20032;52.436;13.312;2022-10-31T07:48:20;13.60;99.90
33699;DHT22;20032;52.436;13.312;2022-10-31T07:50:46;13.70;99.90
33699;DHT22;20032;52.436;13.312;2022-10-31T07:53:13;13.70;99.90
33699;DHT22;20032;52.436;13.312;2022-10-31T07:55:39;13.80;99.90
33699;DHT22;20032;52.436;13.312;2022-10-31T07:58:07;13.90;99.90
33699;DHT22;20032;52.436;13.312;2022-10-31T08:00:34;14.00;99.90
33699;DHT22;20032;52.436;13.312;2022-10-31T08:03:03;14.00;99.90
33699;DHT22;20032;52.436;13.312;2022-10-31T08:05:30;14.00;99.90
33699;DHT22;20032;52.436;13.312;2022-10-31T08:07:56;14.00;99.90
33699;DHT22;20032;52.436;13.312;2022-10-31T08:10:22;14.00;99.90
33699;DHT22;20032;52.436;13.312;2022-10-31T08:12:55;14.00;99.90
33699;DHT22;20032;52.436;13.312;2022-10-31T08:15:20;14.00;99.90
33699;DHT22;20032;52.436;13.312;2022-10-31T08:17:46;14.10;99.90
33699;DHT22;20032;52.436;13.312;2022-10-31T08:20:11;14.00;99.90
33699;DHT22;20032;52.436;13.312;2022-10-31T08:22:36;14.00;99.90
33699;DHT22;20032;52.436;13.312;2022-10-31T08:25:02;14.00;99.90
33699;DHT22;20032;52.436;13.312;2022-10-31T08:27:28;14.00;99.90
33699;DHT22;20032;52.436;13.312;2022-10-31T08:29:53;14.10;99.90
33699;DHT22;20032;52.436;13.312;2022-10-31T08:32:19;14.10;99.90
33699;DHT22;20032;52.436;13.312;2022-10-31T08:34:44;14.10;99.90
33699;DHT22;20032;52.436;13.312;2022-10-31T08:37:10;14.10;99.90
33699;DHT22;20032;52.436;13.312;2022-10-31T08:39:35;14.10;99.90
33699;DHT22;20032;52.436;13.312;2022-10-31T08:42:01;14.10;99.90
33699;DHT22;20032;52.436;13.312;2022-10-31T08:44:26;14.10;99.90
33699;DHT22;20032;52.436;13.312;2022-10-31T08:46:51;14.20;99.90
33699;DHT22;20032;52.436;13.312;2022-10-31T08:49:17;14.30;99.90
33699;DHT22;20032;52.436;13.312;2022-10-31T08:51:42;14.30;99.90
33699;DHT22;20032;52.436;13.312;2022-10-31T08:54:08;14.40;99.90
33699;DHT22;20032;52.436;13.312;2022-10-31T08:56:33;14.30;99.90
33699;DHT22;20032;52.436;13.312;2022-10-31T08:58:59;14.30;99.90
33699;DHT22;20032;52.436;13.312;2022-10-31T09:01:24;14.50;99.90
33699;DHT22;20032;52.436;13.312;2022-10-31T09:03:50;14.50;99.90
33699;DHT22;20032;52.436;13.312;2022-10-31T09:06:15;14.60;99.90
33699;DHT22;20032;52.436;13.312;2022-10-31T09:08:41;14.80;99.90
33699;DHT22;20032;52.436;13.312;2022-10-31T09:11:06;14.80;99.90
33699;DHT22;20032;52.436;13.312;2022-10-31T09:13:32;14.80;99.90
33699;DHT22;20032;52.436;13.312;2022-10-31T09:15:58;14.80;99.90
33699;DHT22;20032;52.436;13.312;2022-10-31T09:18:24;14.70;99.90
33699;DHT22;20032;52.436;13.312;2022-10-31T09:20:52;14.70;99.90
33699;DHT22;20032;52.436;13.312;2022-10-31T09:23:19;14.70;99.90
33699;DHT22;20032;52.436;13.312;2022-10-31T09:25:46;14.70;99.90
33699;DHT22;20032;52.436;13.312;2022-10-31T09:28:14;14.70;99.90
33699;DHT22;20032;52.436;13.312;2022-10-31T09:30:40;14.70;99.90
33699;DHT22;20032;52.436;13.312;2022-10-31T09:33:09;14.70;99.90
33699;DHT22;20032;52.436;13.312;2022-10-31T09:35:35;14.80;99.90
33699;DHT22;20032;52.436;13.312;2022-10-31T09:38:03;14.90;99.90
33699;DHT22;20032;52.436;13.312;2022-10-31T09:40:35;15.00;99.90
33699;DHT22;20032;52.436;13.312;2022-10-31T09:43:39;15.10;99.90
33699;DHT22;20032;52.436;13.312;2022-10-31T09:46:14;15.20;99.90
33699;DHT22;20032;52.436;13.312;2022-10-31T09:51:29;15.10;99.90
33699;DHT22;20032;52.436;13.312;2022-10-31T09:54:04;15.00;99.90
33699;DHT22;20032;52.436;13.312;2022-10-31T09:56:31;15.00;99.90
33699;DHT22;20032;52.436;13.312;2022-10-31T09:58:59;14.90;99.90
33699;DHT22;20032;52.436;13.312;2022-10-31T10:01:35;15.00;99.90
33699;DHT22;20032;52.436;13.312;2022-10-31T10:04:15;15.10;99.90
33699;DHT22;20032;52.436;13.312;2022-10-31T10:06:45;15.30;99.90
33699;DHT22;20032;52.436;13.312;2022-10-31T10:09:12;15.40;99.90
33699;DHT22;20032;52.436;13.312;2022-10-31T10:14:52;15.50;99.90
33699;DHT22;20032;52.436;13.312;2022-10-31T10:17:41;15.50;99.90
33699;DHT22;20032;52.436;13.312;2022-10-31T10:20:18;15.50;99.90
33699;DHT22;20032;52.436;13.312;2022-10-31T10:22:54;15.60;99.90
33699;DHT22;20032;52.436;13.312;2022-10-31T10:25:33;15.60;99.90
33699;DHT22;20032;52.436;13.312;2022-10-31T10:28:20;15.70;99.90
33699;DHT22;20032;52.436;13.312;2022-10-31T10:30:58;15.70;99.90
33699;DHT22;20032;52.436;13.312;2022-10-31T10:34:45;15.90;99.90
33699;DHT22;20032;52.436;13.312;2022-10-31T10:36:37;16.00;99.90
33699;DHT22;20032;52.436;13.312;2022-10-31T10:39:11;16.20;99.90
33699;DHT22;20032;52.436;13.312;2022-10-31T10:41:41;16.30;99.90
33699;DHT22;20032;52.436;13.312;2022-10-31T10:44:10;16.40;99.90
33699;DHT22;20032;52.436;13.312;2022-10-31T10:46:51;16.50;99.90
33699;DHT22;20032;52.436;13.312;2022-10-31T10:49:45;16.70;99.90
33699;DHT22;20032;52.436;13.312;2022-10-31T10:52:29;16.90;99.90
33699;DHT22;20032;52.436;13.312;2022-10-31T10:56:07;17.00;99.90
33699;DHT22;20032;52.436;13.312;2022-10-31T10:57:57;17.10;99.90
33699;DHT22;20032;52.436;13.312;2022-10-31T11:00:27;17.30;99.90
33699;DHT22;20032;52.436;13.312;2022-10-31T11:02:53;17.40;99.90
33699;DHT22;20032;52.436;13.312;2022-10-31T11:05:56;17.50;99.90
33699;DHT22;20032;52.436;13.312;2022-10-31T11:08:11;17.60;99.90
33699;DHT22;20032;52.436;13.312;2022-10-31T11:11:00;17.80;99.90
33699;DHT22;20032;52.436;13.312;2022-10-31T11:13:27;18.10;99.90
33699;DHT22;20032;52.436;13.312;2022-10-31T11:15:59;18.10;99.90
33699;DHT22;20032;52.436;13.312;2022-10-31T11:18:30;18.40;99.90
33699;DHT22;20032;52.436;13.312;2022-10-31T11:20:58;18.50;99.90
33699;DHT22;20032;52.436;13.312;2022-10-31T11:23:26;18.60;99.90
33699;DHT22;20032;52.436;13.312;2022-10-31T11:28:23;18.80;99.90
33699;DHT22;20032;52.436;13.312;2022-10-31T11:30:57;19.00;99.90
33699;DHT22;20032;52.436;13.312;2022-10-31T11:33:31;19.20;99.90
33699;DHT22;20032;52.436;13.312;2022-10-31T11:35:58;19.50;99.90
33699;DHT22;20032;52.436;13.312;2022-10-31T11:38:33;19.80;99.90
33699;DHT22;20032;52.436;13.312;2022-10-31T11:41:08;19.80;99.90
33699;DHT22;20032;52.436;13.312;2022-10-31T11:43:35;20.10;99.90
33699;DHT22;20032;52.436;13.312;2022-10-31T11:46:09;20.30;99.90
33699;DHT22;20032;52.436;13.312;2022-10-31T11:48:35;20.50;99.90
33699;DHT22;20032;52.436;13.312;2022-10-31T11:51:02;20.70;99.90
33699;DHT22;20032;52.436;13.312;2022-10-31T11:53:32;20.60;99.90
33699;DHT22;20032;52.436;13.312;2022-10-31T11:56:12;20.60;99.90
33699;DHT22;20032;52.436;13.312;2022-10-31T11:58:37;20.80;99.90
33699;DHT22;20032;52.436;13.312;2022-10-31T12:01:03;20.90;99.90
33699;DHT22;20032;52.436;13.312;2022-10-31T12:04:41;20.90;99.90
33699;DHT22;20032;52.436;13.312;2022-10-31T12:06:27;21.10;99.90
33699;DHT22;20032;52.436;13.312;2022-10-31T12:08:53;21.40;99.90
33699;DHT22;20032;52.436;13.312;2022-10-31T12:14:11;21.50;99.90
33699;DHT22;20032;52.436;13.312;2022-10-31T12:24:53;22.20;99.90
33699;DHT22;20032;52.436;13.312;2022-10-31T12:33:56;22.10;99.90
33699;DHT22;20032;52.436;13.312;2022-10-31T12:35:56;22.00;99.90
33699;DHT22;20032;52.436;13.312;2022-10-31T12:38:47;22.10;99.90
33699;DHT22;20032;52.436;13.312;2022-10-31T12:41:39;22.40;99.90
33699;DHT22;20032;52.436;13.312;2022-10-31T12:50:19;22.00;99.90
33699;DHT22;20032;52.436;13.312;2022-10-31T12:53:11;21.40;99.90
33699;DHT22;20032;52.436;13.312;2022-10-31T12:57:47;20.90;99.90
33699;DHT22;20032;52.436;13.312;2022-10-31T12:58:34;20.70;99.90
33699;DHT22;20032;52.436;13.312;2022-10-31T13:01:09;20.70;99.90
33699;DHT22;20032;52.436;13.312;2022-10-31T13:03:52;20.60;99.90
33699;DHT22;20032;52.436;13.312;2022-10-31T13:06:23;20.60;99.90
33699;DHT22;20032;52.436;13.312;2022-10-31T13:08:56;20.40;99.90
33699;DHT22;20032;52.436;13.312;2022-10-31T13:11:29;20.40;99.90
33699;DHT22;20032;52.436;13.312;2022-10-31T13:15:05;20.30;99.90
33699;DHT22;20032;52.436;13.312;2022-10-31T13:16:48;20.20;99.90
33699;DHT22;20032;52.436;13.312;2022-10-31T13:19:21;20.20;99.90
33699;DHT22;20032;52.436;13.312;2022-10-31T13:22:03;20.10;99.90
33699;DHT22;20032;52.436;13.312;2022-10-31T13:24:38;20.00;99.90
33699;DHT22;20032;52.436;13.312;2022-10-31T13:27:15;20.00;99.90
33699;DHT22;20032;52.436;13.312;2022-10-31T13:29:55;19.90;99.90
33699;DHT22;20032;52.436;13.312;2022-10-31T13:32:22;19.70;99.90
33699;DHT22;20032;52.436;13.312;2022-10-31T13:34:53;19.70;99.90
33699;DHT22;20032;52.436;13.312;2022-10-31T13:37:41;19.70;99.90
33699;DHT22;20032;52.436;13.312;2022-10-31T13:40:19;19.70;99.90
33699;DHT22;20032;52.436;13.312;2022-10-31T13:43:46;19.50;99.90
33699;DHT22;20032;52.436;13.312;2022-10-31T13:45:54;19.50;99.90
33699;DHT22;20032;52.436;13.312;2022-10-31T13:48:34;19.50;99.90
33699;DHT22;20032;52.436;13.312;2022-10-31T13:51:09;19.40;99.90
33699;DHT22;20032;52.436;13.312;2022-10-31T13:56:22;19.20;99.90
33699;DHT22;20032;52.436;13.312;2022-10-31T13:59:00;19.20;99.90
33699;DHT22;20032;52.436;13.312;2022-10-31T14:01:27;19.10;99.90
33699;DHT22;20032;52.436;13.312;2022-10-31T14:03:59;19.00;99.90
33699;DHT22;20032;52.436;13.312;2022-10-31T14:06:36;18.90;99.90
33699;DHT22;20032;52.436;13.312;2022-10-31T14:09:03;18.90;99.90
33699;DHT22;20032;52.436;13.312;2022-10-31T14:11:29;18.80;99.90
33699;DHT22;20032;52.436;13.312;2022-10-31T14:13:56;18.70;99.90
33699;DHT22;20032;52.436;13.312;2022-10-31T14:16:26;18.60;99.90
33699;DHT22;20032;52.436;13.312;2022-10-31T14:19:19;18.50;99.90
33699;DHT22;20032;52.436;13.312;2022-10-31T14:21:46;18.40;99.90
33699;DHT22;20032;52.436;13.312;2022-10-31T14:27:04;18.20;99.90
33699;DHT22;20032;52.436;13.312;2022-10-31T14:29:33;18.00;99.90
33699;DHT22;20032;52.436;13.312;2022-10-31T14:32:19;17.90;99.90
33699;DHT22;20032;52.436;13.312;2022-10-31T14:34:55;17.90;99.90
33699;DHT22;20032;52.436;13.312;2022-10-31T14:37:52;17.90;99.90
33699;DHT22;20032;52.436;13.312;2022-10-31T14:40:37;17.70;99.90
33699;DHT22;20032;52.436;13.312;2022-10-31T14:43:19;17.70;99.90
33699;DHT22;20032;52.436;13.312;2022-10-31T14:49:48;17.30;99.90
33699;DHT22;20032;52.436;13.312;2022-10-31T14:51:39;17.20;99.90
33699;DHT22;20032;52.436;13.312;2022-10-31T14:54:06;17.10;99.90
33699;DHT22;20032;52.436;13.312;2022-10-31T14:56:35;17.00;99.90
33699;DHT22;20032;52.436;13.312;2022-10-31T14:59:08;16.80;99.90
33699;DHT22;20032;52.436;13.312;2022-10-31T15:01:36;16.60;99.90
33699;DHT22;20032;52.436;13.312;2022-10-31T15:04:18;16.50;99.90
33699;DHT22;20032;52.436;13.312;2022-10-31T15:06:49;16.50;99.90
33699;DHT22;20032;52.436;13.312;2022-10-31T15:09:22;16.40;99.90
33699;DHT22;20032;52.436;13.312;2022-10-31T15:11:48;16.40;99.90
33699;DHT22;20032;52.436;13.312;2022-10-31T15:14:30;16.30;99.90
33699;DHT22;20032;52.436;13.312;2022-10-31T15:16:58;16.20;99.90
33699;DHT22;20032;52.436;13.312;2022-10-31T15:19:29;16.00;99.90
33699;DHT22;20032;52.436;13.312;2022-10-31T15:21:56;15.90;99.90
33699;DHT22;20032;52.436;13.312;2022-10-31T15:24:24;15.90;99.90
33699;DHT22;20032;52.436;13.312;2022-10-31T15:26:52;15.90;99.90
33699;DHT22;20032;52.436;13.312;2022-10-31T15:29:21;15.90;99.90
33699;DHT22;20032;52.436;13.312;2022-10-31T15:31:53;15.80;99.90
33699;DHT22;20032;52.436;13.312;2022-10-31T15:36:51;15.70;99.90
33699;DHT22;20032;52.436;13.312;2022-10-31T15:39:17;15.60;99.90
33699;DHT22;20032;52.436;13.312;2022-10-31T15:41:50;15.60;99.90
33699;DHT22;20032;52.436;13.312;2022-10-31T15:44:23;15.50;99.90
33699;DHT22;20032;52.436;13.312;2022-10-31T15:46:55;15.50;99.90
33699;DHT22;20032;52.436;13.312;2022-10-31T15:51:55;15.30;99.90
33699;DHT22;20032;52.436;13.312;2022-10-31T15:54:21;15.40;99.90
33699;DHT22;20032;52.436;13.312;2022-10-31T15:56:47;15.20;99.90
33699;DHT22;20032;52.436;13.312;2022-10-31T15:59:21;15.30;99.90
33699;DHT22;20032;52.436;13.312;2022-10-31T16:01:59;15.30;99.90
33699;DHT22;20032;52.436;13.312;2022-10-31T16:04:25;15.20;99.90
33699;DHT22;20032;52.436;13.312;2022-10-31T16:07:00;15.10;99.90
33699;DHT22;20032;52.436;13.312;2022-10-31T16:09:27;14.90;99.90
33699;DHT22;20032;52.436;13.312;2022-10-31T16:11:52;14.90;99.90
33699;DHT22;20032;52.436;13.312;2022-10-31T16:14:26;14.80;99.90
33699;DHT22;20032;52.436;13.312;2022-10-31T16:16:55;14.70;99.90
33699;DHT22;20032;52.436;13.312;2022-10-31T16:19:24;14.60;99.90
33699;DHT22;20032;52.436;13.312;2022-10-31T16:21:54;14.60;99.90
33699;DHT22;20032;52.436;13.312;2022-10-31T16:24:28;14.60;99.90
33699;DHT22;20032;52.436;13.312;2022-10-31T16:27:05;14.50;99.90